sensor_id;sensor_type;location;lat;lon;timestamp;P1;durP1;ratioP1;P2;durP2;ratioP2
17201;SDS011;8717;53.588;10.176;2024-03-07T00:01:45;26.40;;;16.33;;
17201;SDS011;8717;53.588;10.176;2024-03-07T00:04:12;27.20;;;17.17;;
17201;SDS011;8717;53.588;10.176;2024-03-07T00:06:39;24.93;;;15.03;;
17201;SDS011;8717;53.588;10.176;2024-03-07T00:09:07;24.90;;;15.10;;
17201;SDS011;8717;53.588;10.176;2024-03-07T00:11:34;24.57;;;15.23;;
17201;SDS011;8717;53.588;10.176;2024-03-07T00:14:04;26.57;;;14.93;;
17201;SDS011;8717;53.588;10.176;2024-03-07T00:16:31;25.40;;;15.73;;
17201;SDS011;8717;53.588;10.176;2024-03-07T00:19:00;24.07;;;14.53;;
17201;SDS011;8717;53.588;10.176;2024-03-07T00:21:27;29.37;;;15.13;;
17201;SDS011;8717;53.588;10.176;2024-03-07T00:23:53;25.60;;;14.93;;
17201;SDS011;8717;53.588;10.176;2024-03-07T00:26:20;27.97;;;16.17;;
17201;SDS011;8717;53.588;10.176;2024-03-07T00:28:47;27.03;;;15.13;;
17201;SDS011;8717;53.588;10.176;2024-03-07T00:31:14;25.63;;;15.33;;
17201;SDS011;8717;53.588;10.176;2024-03-07T00:33:41;25.10;;;14.77;;
17201;SDS011;8717;53.588;10.176;2024-03-07T00:36:09;30.27;;;15.93;;
17201;SDS011;8717;53.588;10.176;2024-03-07T00:38:39;28.20;;;15.90;;
17201;SDS011;8717;53.588;10.176;2024-03-07T00:41:07;31.10;;;17.27;;
17201;SDS011;8717;53.588;10.176;2024-03-07T00:43:36;29.27;;;17.17;;
17201;SDS011;8717;53.588;10.176;2024-03-07T00:46:03;29.60;;;15.90;;
17201;SDS011;8717;53.588;10.176;2024-03-07T00:48:31;28.73;;;16.70;;
17201;SDS011;8717;53.588;10.176;2024-03-07T00:50:58;25.50;;;15.87;;
17201;SDS011;8717;53.588;10.176;2024-03-07T00:53:26;26.33;;;15.20;;
17201;SDS011;8717;53.588;10.176;2024-03-07T00:55:53;30.67;;;17.03;;
17201;SDS011;8717;53.588;10.176;2024-03-07T00:58:19;29.33;;;15.70;;
17201;SDS011;8717;53.588;10.176;2024-03-07T01:00:46;31.47;;;16.63;;
17201;SDS011;8717;53.588;10.176;2024-03-07T01:03:13;24.87;;;15.00;;
17201;SDS011;8717;53.588;10.176;2024-03-07T01:05:42;24.77;;;15.10;;
17201;SDS011;8717;53.588;10.176;2024-03-07T01:08:09;26.37;;;13.97;;
17201;SDS011;8717;53.588;10.176;2024-03-07T01:10:37;27.23;;;14.57;;
17201;SDS011;8717;53.588;10.176;2024-03-07T01:13:04;26.73;;;15.37;;
17201;SDS011;8717;53.588;10.176;2024-03-07T01:15:33;27.97;;;15.63;;
17201;SDS011;8717;53.588;10.176;2024-03-07T01:18:01;23.13;;;14.43;;
17201;SDS011;8717;53.588;10.176;2024-03-07T01:20:28;28.90;;;15.73;;
17201;SDS011;8717;53.588;10.176;2024-03-07T01:22:55;30.00;;;15.83;;
17201;SDS011;8717;53.588;10.176;2024-03-07T01:25:22;25.93;;;15.20;;
17201;SDS011;8717;53.588;10.176;2024-03-07T01:27:50;24.20;;;15.07;;
17201;SDS011;8717;53.588;10.176;2024-03-07T01:30:17;28.40;;;15.73;;
17201;SDS011;8717;53.588;10.176;2024-03-07T01:32:44;24.33;;;15.97;;
17201;SDS011;8717;53.588;10.176;2024-03-07T01:35:10;25.37;;;16.80;;
17201;SDS011;8717;53.588;10.176;2024-03-07T01:37:38;28.20;;;16.07;;
17201;SDS011;8717;53.588;10.176;2024-03-07T01:40:05;29.57;;;17.13;;
17201;SDS011;8717;53.588;10.176;2024-03-07T01:42:33;26.67;;;16.43;;
17201;SDS011;8717;53.588;10.176;2024-03-07T01:45:02;24.03;;;15.70;;
17201;SDS011;8717;53.588;10.176;2024-03-07T01:47:29;25.70;;;15.93;;
17201;SDS011;8717;53.588;10.176;2024-03-07T01:49:56;28.77;;;16.97;;
17201;SDS011;8717;53.588;10.176;2024-03-07T01:52:24;27.57;;;16.20;;
17201;SDS011;8717;53.588;10.176;2024-03-07T01:54:52;32.70;;;17.60;;
17201;SDS011;8717;53.588;10.176;2024-03-07T01:57:19;29.73;;;16.73;;
17201;SDS011;8717;53.588;10.176;2024-03-07T01:59:46;29.33;;;17.87;;
17201;SDS011;8717;53.588;10.176;2024-03-07T02:02:17;28.13;;;17.10;;
17201;SDS011;8717;53.588;10.176;2024-03-07T02:04:44;31.83;;;18.57;;
17201;SDS011;8717;53.588;10.176;2024-03-07T02:07:11;28.10;;;18.10;;
17201;SDS011;8717;53.588;10.176;2024-03-07T02:09:38;28.83;;;17.70;;
17201;SDS011;8717;53.588;10.176;2024-03-07T02:12:05;31.53;;;17.63;;
17201;SDS011;8717;53.588;10.176;2024-03-07T02:14:34;27.83;;;17.57;;
17201;SDS011;8717;53.588;10.176;2024-03-07T02:17:00;29.40;;;17.53;;
17201;SDS011;8717;53.588;10.176;2024-03-07T02:19:28;27.93;;;17.37;;
17201;SDS011;8717;53.588;10.176;2024-03-07T02:21:58;27.37;;;17.47;;
17201;SDS011;8717;53.588;10.176;2024-03-07T02:24:25;26.80;;;17.10;;
17201;SDS011;8717;53.588;10.176;2024-03-07T02:26:51;26.63;;;16.27;;
17201;SDS011;8717;53.588;10.176;2024-03-07T02:29:18;22.43;;;15.33;;
17201;SDS011;8717;53.588;10.176;2024-03-07T02:31:45;28.60;;;16.87;;
17201;SDS011;8717;53.588;10.176;2024-03-07T02:34:12;27.03;;;16.87;;
17201;SDS011;8717;53.588;10.176;2024-03-07T02:36:39;29.90;;;16.80;;
17201;SDS011;8717;53.588;10.176;2024-03-07T02:39:07;25.80;;;16.20;;
17201;SDS011;8717;53.588;10.176;2024-03-07T02:41:34;26.00;;;16.13;;
17201;SDS011;8717;53.588;10.176;2024-03-07T02:44:01;25.03;;;15.97;;
17201;SDS011;8717;53.588;10.176;2024-03-07T02:46:29;25.80;;;15.77;;
17201;SDS011;8717;53.588;10.176;2024-03-07T02:48:57;25.37;;;15.47;;
17201;SDS011;8717;53.588;10.176;2024-03-07T02:51:24;26.23;;;16.37;;
17201;SDS011;8717;53.588;10.176;2024-03-07T02:53:51;24.80;;;15.30;;
17201;SDS011;8717;53.588;10.176;2024-03-07T02:56:19;24.27;;;15.47;;
17201;SDS011;8717;53.588;10.176;2024-03-07T02:58:46;25.33;;;14.63;;
17201;SDS011;8717;53.588;10.176;2024-03-07T03:01:12;25.33;;;14.57;;
17201;SDS011;8717;53.588;10.176;2024-03-07T03:03:39;28.93;;;15.17;;
17201;SDS011;8717;53.588;10.176;2024-03-07T03:06:07;24.13;;;14.43;;
17201;SDS011;8717;53.588;10.176;2024-03-07T03:08:35;25.27;;;14.03;;
17201;SDS011;8717;53.588;10.176;2024-03-07T03:11:02;23.43;;;14.20;;
17201;SDS011;8717;53.588;10.176;2024-03-07T03:13:31;21.53;;;13.43;;
17201;SDS011;8717;53.588;10.176;2024-03-07T03:15:59;23.77;;;13.40;;
17201;SDS011;8717;53.588;10.176;2024-03-07T03:18:28;24.43;;;14.23;;
17201;SDS011;8717;53.588;10.176;2024-03-07T03:20:56;26.57;;;14.20;;
17201;SDS011;8717;53.588;10.176;2024-03-07T03:23:22;21.27;;;13.33;;
17201;SDS011;8717;53.588;10.176;2024-03-07T03:25:50;22.97;;;14.00;;
17201;SDS011;8717;53.588;10.176;2024-03-07T03:28:17;27.57;;;13.73;;
17201;SDS011;8717;53.588;10.176;2024-03-07T03:30:47;22.87;;;13.13;;
17201;SDS011;8717;53.588;10.176;2024-03-07T03:33:14;23.53;;;12.90;;
17201;SDS011;8717;53.588;10.176;2024-03-07T03:35:41;23.73;;;12.77;;
17201;SDS011;8717;53.588;10.176;2024-03-07T03:38:09;25.77;;;13.33;;
17201;SDS011;8717;53.588;10.176;2024-03-07T03:40:36;23.17;;;13.20;;
17201;SDS011;8717;53.588;10.176;2024-03-07T03:43:03;23.60;;;13.13;;
17201;SDS011;8717;53.588;10.176;2024-03-07T03:45:30;22.33;;;13.40;;
17201;SDS011;8717;53.588;10.176;2024-03-07T03:48:00;21.80;;;13.47;;
17201;SDS011;8717;53.588;10.176;2024-03-07T03:50:27;23.30;;;14.50;;
17201;SDS011;8717;53.588;10.176;2024-03-07T03:52:54;23.63;;;14.43;;
17201;SDS011;8717;53.588;10.176;2024-03-07T03:55:22;24.40;;;14.50;;
17201;SDS011;8717;53.588;10.176;2024-03-07T03:57:49;23.47;;;14.03;;
17201;SDS011;8717;53.588;10.176;2024-03-07T04:00:16;21.17;;;13.80;;
17201;SDS011;8717;53.588;10.176;2024-03-07T04:02:44;21.47;;;14.23;;
17201;SDS011;8717;53.588;10.176;2024-03-07T04:05:14;20.67;;;13.47;;
17201;SDS011;8717;53.588;10.176;2024-03-07T04:07:42;21.03;;;13.57;;
17201;SDS011;8717;53.588;10.176;2024-03-07T04:10:10;23.73;;;14.00;;
17201;SDS011;8717;53.588;10.176;2024-03-07T04:12:38;22.27;;;13.87;;
17201;SDS011;8717;53.588;10.176;2024-03-07T04:15:07;20.80;;;13.53;;
17201;SDS011;8717;53.588;10.176;2024-03-07T04:17:35;22.10;;;14.07;;
17201;SDS011;8717;53.588;10.176;2024-03-07T04:20:03;20.07;;;13.73;;
17201;SDS011;8717;53.588;10.176;2024-03-07T04:22:32;20.23;;;13.27;;
17201;SDS011;8717;53.588;10.176;2024-03-07T04:24:59;18.83;;;13.20;;
17201;SDS011;8717;53.588;10.176;2024-03-07T04:27:26;20.63;;;12.83;;
17201;SDS011;8717;53.588;10.176;2024-03-07T04:29:54;18.70;;;12.33;;
17201;SDS011;8717;53.588;10.176;2024-03-07T04:32:21;22.60;;;13.27;;
17201;SDS011;8717;53.588;10.176;2024-03-07T04:34:48;20.37;;;13.27;;
17201;SDS011;8717;53.588;10.176;2024-03-07T04:37:15;22.00;;;13.00;;
17201;SDS011;8717;53.588;10.176;2024-03-07T04:39:43;22.27;;;12.90;;
17201;SDS011;8717;53.588;10.176;2024-03-07T04:42:10;20.17;;;14.03;;
17201;SDS011;8717;53.588;10.176;2024-03-07T04:44:37;20.30;;;13.70;;
17201;SDS011;8717;53.588;10.176;2024-03-07T04:47:05;21.03;;;13.60;;
17201;SDS011;8717;53.588;10.176;2024-03-07T04:49:32;20.83;;;14.10;;
17201;SDS011;8717;53.588;10.176;2024-03-07T04:52:00;19.43;;;13.00;;
17201;SDS011;8717;53.588;10.176;2024-03-07T04:54:30;21.83;;;13.60;;
17201;SDS011;8717;53.588;10.176;2024-03-07T04:57:00;19.73;;;12.90;;
17201;SDS011;8717;53.588;10.176;2024-03-07T04:59:28;19.67;;;13.10;;
17201;SDS011;8717;53.588;10.176;2024-03-07T05:01:56;22.53;;;13.77;;
17201;SDS011;8717;53.588;10.176;2024-03-07T05:04:23;19.27;;;13.43;;
17201;SDS011;8717;53.588;10.176;2024-03-07T05:06:54;18.47;;;13.23;;
17201;SDS011;8717;53.588;10.176;2024-03-07T05:09:22;20.53;;;13.63;;
17201;SDS011;8717;53.588;10.176;2024-03-07T05:11:50;16.67;;;12.27;;
17201;SDS011;8717;53.588;10.176;2024-03-07T05:14:19;17.63;;;12.33;;
17201;SDS011;8717;53.588;10.176;2024-03-07T05:16:47;17.40;;;13.07;;
17201;SDS011;8717;53.588;10.176;2024-03-07T05:19:29;20.20;;;14.13;;
17201;SDS011;8717;53.588;10.176;2024-03-07T05:21:57;21.87;;;13.20;;
17201;SDS011;8717;53.588;10.176;2024-03-07T05:24:24;21.17;;;12.60;;
17201;SDS011;8717;53.588;10.176;2024-03-07T05:26:51;23.37;;;14.20;;
17201;SDS011;8717;53.588;10.176;2024-03-07T05:29:19;20.87;;;12.87;;
17201;SDS011;8717;53.588;10.176;2024-03-07T05:31:46;28.63;;;13.77;;
17201;SDS011;8717;53.588;10.176;2024-03-07T05:34:13;19.53;;;13.30;;
17201;SDS011;8717;53.588;10.176;2024-03-07T05:36:42;20.37;;;14.07;;
17201;SDS011;8717;53.588;10.176;2024-03-07T05:39:10;19.30;;;13.47;;
17201;SDS011;8717;53.588;10.176;2024-03-07T05:41:37;19.77;;;13.70;;
17201;SDS011;8717;53.588;10.176;2024-03-07T05:44:05;19.83;;;13.60;;
17201;SDS011;8717;53.588;10.176;2024-03-07T05:46:35;21.03;;;14.40;;
17201;SDS011;8717;53.588;10.176;2024-03-07T05:49:06;18.63;;;13.80;;
17201;SDS011;8717;53.588;10.176;2024-03-07T05:51:33;17.80;;;12.50;;
17201;SDS011;8717;53.588;10.176;2024-03-07T05:54:00;18.50;;;13.03;;
17201;SDS011;8717;53.588;10.176;2024-03-07T05:56:27;16.80;;;12.57;;
17201;SDS011;8717;53.588;10.176;2024-03-07T05:58:54;19.87;;;13.90;;
17201;SDS011;8717;53.588;10.176;2024-03-07T06:01:21;16.87;;;12.30;;
17201;SDS011;8717;53.588;10.176;2024-03-07T06:03:52;17.77;;;12.83;;
17201;SDS011;8717;53.588;10.176;2024-03-07T06:06:19;23.20;;;14.50;;
17201;SDS011;8717;53.588;10.176;2024-03-07T06:08:46;21.17;;;13.47;;
17201;SDS011;8717;53.588;10.176;2024-03-07T06:11:13;20.90;;;14.27;;
17201;SDS011;8717;53.588;10.176;2024-03-07T06:13:44;18.37;;;13.80;;
17201;SDS011;8717;53.588;10.176;2024-03-07T06:16:12;19.63;;;14.40;;
17201;SDS011;8717;53.588;10.176;2024-03-07T06:18:39;19.50;;;13.00;;
17201;SDS011;8717;53.588;10.176;2024-03-07T06:21:07;20.27;;;14.30;;
17201;SDS011;8717;53.588;10.176;2024-03-07T06:23:35;16.07;;;12.77;;
17201;SDS011;8717;53.588;10.176;2024-03-07T06:26:02;19.60;;;13.80;;
17201;SDS011;8717;53.588;10.176;2024-03-07T06:28:37;19.57;;;14.13;;
17201;SDS011;8717;53.588;10.176;2024-03-07T06:31:04;19.97;;;14.80;;
17201;SDS011;8717;53.588;10.176;2024-03-07T06:33:32;17.70;;;13.77;;
17201;SDS011;8717;53.588;10.176;2024-03-07T06:35:59;19.57;;;14.17;;
17201;SDS011;8717;53.588;10.176;2024-03-07T06:38:37;21.07;;;14.53;;
17201;SDS011;8717;53.588;10.176;2024-03-07T06:41:05;18.50;;;14.40;;
17201;SDS011;8717;53.588;10.176;2024-03-07T06:43:44;19.57;;;14.07;;
17201;SDS011;8717;53.588;10.176;2024-03-07T06:46:10;18.97;;;14.37;;
17201;SDS011;8717;53.588;10.176;2024-03-07T06:48:37;19.77;;;13.93;;
17201;SDS011;8717;53.588;10.176;2024-03-07T06:51:05;18.83;;;13.77;;
17201;SDS011;8717;53.588;10.176;2024-03-07T06:53:32;16.37;;;11.90;;
17201;SDS011;8717;53.588;10.176;2024-03-07T06:56:00;17.50;;;12.80;;
17201;SDS011;8717;53.588;10.176;2024-03-07T06:58:27;18.97;;;13.33;;
17201;SDS011;8717;53.588;10.176;2024-03-07T07:00:54;17.47;;;12.23;;
17201;SDS011;8717;53.588;10.176;2024-03-07T07:03:28;17.80;;;12.47;;
17201;SDS011;8717;53.588;10.176;2024-03-07T07:06:05;18.47;;;12.90;;
17201;SDS011;8717;53.588;10.176;2024-03-07T07:08:35;19.60;;;11.97;;
17201;SDS011;8717;53.588;10.176;2024-03-07T07:11:06;16.90;;;12.20;;
17201;SDS011;8717;53.588;10.176;2024-03-07T07:13:33;17.10;;;12.17;;
17201;SDS011;8717;53.588;10.176;2024-03-07T07:16:01;16.73;;;11.97;;
17201;SDS011;8717;53.588;10.176;2024-03-07T07:18:31;17.13;;;12.03;;
17201;SDS011;8717;53.588;10.176;2024-03-07T07:20:58;16.93;;;12.50;;
17201;SDS011;8717;53.588;10.176;2024-03-07T07:23:27;29.80;;;18.00;;
17201;SDS011;8717;53.588;10.176;2024-03-07T07:25:54;16.53;;;12.63;;
17201;SDS011;8717;53.588;10.176;2024-03-07T07:28:22;15.00;;;11.57;;
17201;SDS011;8717;53.588;10.176;2024-03-07T07:30:49;18.20;;;11.83;;
17201;SDS011;8717;53.588;10.176;2024-03-07T07:33:19;20.40;;;13.13;;
17201;SDS011;8717;53.588;10.176;2024-03-07T07:35:45;18.80;;;12.53;;
17201;SDS011;8717;53.588;10.176;2024-03-07T07:38:12;16.60;;;12.00;;
17201;SDS011;8717;53.588;10.176;2024-03-07T07:40:45;16.07;;;11.97;;
17201;SDS011;8717;53.588;10.176;2024-03-07T07:43:12;15.37;;;12.33;;
17201;SDS011;8717;53.588;10.176;2024-03-07T07:45:41;15.70;;;11.23;;
17201;SDS011;8717;53.588;10.176;2024-03-07T07:48:07;16.43;;;11.17;;
17201;SDS011;8717;53.588;10.176;2024-03-07T07:50:37;16.77;;;11.37;;
17201;SDS011;8717;53.588;10.176;2024-03-07T07:53:06;15.23;;;10.80;;
17201;SDS011;8717;53.588;10.176;2024-03-07T07:55:37;13.70;;;10.07;;
17201;SDS011;8717;53.588;10.176;2024-03-07T07:58:05;14.93;;;10.10;;
17201;SDS011;8717;53.588;10.176;2024-03-07T08:00:32;15.67;;;10.43;;
17201;SDS011;8717;53.588;10.176;2024-03-07T08:03:01;14.67;;;10.37;;
17201;SDS011;8717;53.588;10.176;2024-03-07T08:05:32;13.90;;;10.43;;
17201;SDS011;8717;53.588;10.176;2024-03-07T08:08:01;13.50;;;9.83;;
17201;SDS011;8717;53.588;10.176;2024-03-07T08:10:31;14.60;;;9.97;;
17201;SDS011;8717;53.588;10.176;2024-03-07T08:12:59;14.77;;;10.23;;
17201;SDS011;8717;53.588;10.176;2024-03-07T08:15:26;13.87;;;9.93;;
17201;SDS011;8717;53.588;10.176;2024-03-07T08:17:54;13.60;;;9.77;;
17201;SDS011;8717;53.588;10.176;2024-03-07T08:20:24;17.00;;;9.20;;
17201;SDS011;8717;53.588;10.176;2024-03-07T08:22:52;13.00;;;9.70;;
17201;SDS011;8717;53.588;10.176;2024-03-07T08:25:20;13.63;;;10.13;;
17201;SDS011;8717;53.588;10.176;2024-03-07T08:27:49;14.73;;;9.70;;
17201;SDS011;8717;53.588;10.176;2024-03-07T08:30:16;14.13;;;10.43;;
17201;SDS011;8717;53.588;10.176;2024-03-07T08:32:44;13.80;;;10.10;;
17201;SDS011;8717;53.588;10.176;2024-03-07T08:35:12;15.10;;;10.60;;
17201;SDS011;8717;53.588;10.176;2024-03-07T08:37:42;16.07;;;11.43;;
17201;SDS011;8717;53.588;10.176;2024-03-07T08:40:10;13.07;;;10.13;;
17201;SDS011;8717;53.588;10.176;2024-03-07T08:42:44;15.33;;;10.23;;
17201;SDS011;8717;53.588;10.176;2024-03-07T08:45:12;14.60;;;9.67;;
17201;SDS011;8717;53.588;10.176;2024-03-07T08:47:42;14.67;;;10.00;;
17201;SDS011;8717;53.588;10.176;2024-03-07T08:50:09;13.90;;;10.30;;
17201;SDS011;8717;53.588;10.176;2024-03-07T08:52:36;18.23;;;11.07;;
17201;SDS011;8717;53.588;10.176;2024-03-07T08:55:06;16.37;;;11.27;;
17201;SDS011;8717;53.588;10.176;2024-03-07T08:57:35;17.23;;;11.80;;
17201;SDS011;8717;53.588;10.176;2024-03-07T09:00:02;17.37;;;11.60;;
17201;SDS011;8717;53.588;10.176;2024-03-07T09:02:33;18.90;;;11.93;;
17201;SDS011;8717;53.588;10.176;2024-03-07T09:05:00;18.17;;;12.23;;
17201;SDS011;8717;53.588;10.176;2024-03-07T09:07:27;16.10;;;11.30;;
17201;SDS011;8717;53.588;10.176;2024-03-07T09:09:54;19.27;;;12.13;;
17201;SDS011;8717;53.588;10.176;2024-03-07T09:12:22;19.00;;;11.57;;
17201;SDS011;8717;53.588;10.176;2024-03-07T09:14:50;19.77;;;12.67;;
17201;SDS011;8717;53.588;10.176;2024-03-07T09:17:17;20.93;;;12.50;;
17201;SDS011;8717;53.588;10.176;2024-03-07T09:19:44;19.00;;;12.17;;
17201;SDS011;8717;53.588;10.176;2024-03-07T09:22:11;19.20;;;13.97;;
17201;SDS011;8717;53.588;10.176;2024-03-07T09:24:38;18.13;;;12.77;;
17201;SDS011;8717;53.588;10.176;2024-03-07T09:27:04;18.73;;;12.33;;
17201;SDS011;8717;53.588;10.176;2024-03-07T09:29:32;20.43;;;12.93;;
17201;SDS011;8717;53.588;10.176;2024-03-07T09:31:59;18.47;;;12.30;;
17201;SDS011;8717;53.588;10.176;2024-03-07T09:34:27;18.27;;;12.83;;
17201;SDS011;8717;53.588;10.176;2024-03-07T09:36:55;23.03;;;13.90;;
17201;SDS011;8717;53.588;10.176;2024-03-07T09:39:24;20.20;;;13.57;;
17201;SDS011;8717;53.588;10.176;2024-03-07T09:41:52;21.83;;;13.77;;
17201;SDS011;8717;53.588;10.176;2024-03-07T09:44:20;19.90;;;13.03;;
17201;SDS011;8717;53.588;10.176;2024-03-07T09:46:52;19.70;;;13.20;;
17201;SDS011;8717;53.588;10.176;2024-03-07T09:49:21;16.73;;;12.97;;
17201;SDS011;8717;53.588;10.176;2024-03-07T09:51:49;20.23;;;13.20;;
17201;SDS011;8717;53.588;10.176;2024-03-07T09:54:19;21.00;;;13.33;;
17201;SDS011;8717;53.588;10.176;2024-03-07T09:56:48;19.87;;;13.97;;
17201;SDS011;8717;53.588;10.176;2024-03-07T09:59:16;18.83;;;13.37;;
17201;SDS011;8717;53.588;10.176;2024-03-07T10:01:47;18.40;;;12.83;;
17201;SDS011;8717;53.588;10.176;2024-03-07T10:04:18;17.67;;;13.13;;
17201;SDS011;8717;53.588;10.176;2024-03-07T10:06:51;21.40;;;14.07;;
17201;SDS011;8717;53.588;10.176;2024-03-07T10:09:19;17.77;;;13.10;;
17201;SDS011;8717;53.588;10.176;2024-03-07T10:11:54;21.13;;;14.47;;
17201;SDS011;8717;53.588;10.176;2024-03-07T10:14:22;18.80;;;12.87;;
17201;SDS011;8717;53.588;10.176;2024-03-07T10:16:49;18.27;;;13.27;;
17201;SDS011;8717;53.588;10.176;2024-03-07T10:19:17;21.20;;;14.10;;
17201;SDS011;8717;53.588;10.176;2024-03-07T10:21:44;20.53;;;14.27;;
17201;SDS011;8717;53.588;10.176;2024-03-07T10:24:11;19.57;;;12.90;;
17201;SDS011;8717;53.588;10.176;2024-03-07T10:26:38;20.67;;;13.77;;
17201;SDS011;8717;53.588;10.176;2024-03-07T10:29:05;20.47;;;14.43;;
17201;SDS011;8717;53.588;10.176;2024-03-07T10:31:33;19.07;;;13.77;;
17201;SDS011;8717;53.588;10.176;2024-03-07T10:34:02;18.73;;;13.07;;
17201;SDS011;8717;53.588;10.176;2024-03-07T10:36:31;20.27;;;13.70;;
17201;SDS011;8717;53.588;10.176;2024-03-07T10:38:58;19.73;;;13.37;;
17201;SDS011;8717;53.588;10.176;2024-03-07T10:41:36;19.47;;;13.30;;
17201;SDS011;8717;53.588;10.176;2024-03-07T10:44:11;22.20;;;14.00;;
17201;SDS011;8717;53.588;10.176;2024-03-07T10:46:41;21.43;;;14.07;;
17201;SDS011;8717;53.588;10.176;2024-03-07T10:49:12;21.00;;;12.87;;
17201;SDS011;8717;53.588;10.176;2024-03-07T10:51:44;21.43;;;13.97;;
17201;SDS011;8717;53.588;10.176;2024-03-07T10:54:18;20.30;;;13.70;;
17201;SDS011;8717;53.588;10.176;2024-03-07T10:56:55;17.17;;;12.70;;
17201;SDS011;8717;53.588;10.176;2024-03-07T10:59:30;18.27;;;13.13;;
17201;SDS011;8717;53.588;10.176;2024-03-07T11:01:59;20.87;;;14.00;;
17201;SDS011;8717;53.588;10.176;2024-03-07T11:04:37;19.57;;;12.90;;
17201;SDS011;8717;53.588;10.176;2024-03-07T11:07:05;19.93;;;13.33;;
17201;SDS011;8717;53.588;10.176;2024-03-07T11:09:32;21.47;;;12.93;;
17201;SDS011;8717;53.588;10.176;2024-03-07T11:12:00;21.70;;;13.27;;
17201;SDS011;8717;53.588;10.176;2024-03-07T11:14:29;19.30;;;13.60;;
17201;SDS011;8717;53.588;10.176;2024-03-07T11:16:57;20.83;;;12.70;;
17201;SDS011;8717;53.588;10.176;2024-03-07T11:19:26;15.87;;;12.53;;
17201;SDS011;8717;53.588;10.176;2024-03-07T11:21:54;18.97;;;12.87;;
17201;SDS011;8717;53.588;10.176;2024-03-07T11:24:26;17.53;;;12.73;;
17201;SDS011;8717;53.588;10.176;2024-03-07T11:26:55;21.20;;;13.00;;
17201;SDS011;8717;53.588;10.176;2024-03-07T11:29:41;18.53;;;12.80;;
17201;SDS011;8717;53.588;10.176;2024-03-07T11:32:09;19.97;;;12.80;;
17201;SDS011;8717;53.588;10.176;2024-03-07T11:34:39;18.43;;;13.23;;
17201;SDS011;8717;53.588;10.176;2024-03-07T11:37:07;18.20;;;12.40;;
17201;SDS011;8717;53.588;10.176;2024-03-07T11:39:44;19.87;;;13.57;;
17201;SDS011;8717;53.588;10.176;2024-03-07T11:42:19;18.97;;;13.73;;
17201;SDS011;8717;53.588;10.176;2024-03-07T11:44:47;18.00;;;12.83;;
17201;SDS011;8717;53.588;10.176;2024-03-07T11:47:15;23.37;;;13.90;;
17201;SDS011;8717;53.588;10.176;2024-03-07T11:49:43;19.77;;;13.87;;
17201;SDS011;8717;53.588;10.176;2024-03-07T11:52:13;21.67;;;13.67;;
17201;SDS011;8717;53.588;10.176;2024-03-07T11:54:43;22.50;;;14.17;;
17201;SDS011;8717;53.588;10.176;2024-03-07T11:57:12;18.17;;;13.47;;
17201;SDS011;8717;53.588;10.176;2024-03-07T11:59:41;21.23;;;14.57;;
17201;SDS011;8717;53.588;10.176;2024-03-07T12:02:10;17.23;;;13.83;;
17201;SDS011;8717;53.588;10.176;2024-03-07T12:04:39;20.47;;;14.40;;
17201;SDS011;8717;53.588;10.176;2024-03-07T12:07:06;19.10;;;13.77;;
17201;SDS011;8717;53.588;10.176;2024-03-07T12:09:35;17.93;;;13.33;;
17201;SDS011;8717;53.588;10.176;2024-03-07T12:12:05;20.50;;;13.83;;
17201;SDS011;8717;53.588;10.176;2024-03-07T12:14:32;20.53;;;13.53;;
17201;SDS011;8717;53.588;10.176;2024-03-07T12:16:59;20.57;;;14.40;;
17201;SDS011;8717;53.588;10.176;2024-03-07T12:19:27;19.27;;;13.10;;
17201;SDS011;8717;53.588;10.176;2024-03-07T12:21:56;19.93;;;13.40;;
17201;SDS011;8717;53.588;10.176;2024-03-07T12:24:23;21.10;;;14.13;;
17201;SDS011;8717;53.588;10.176;2024-03-07T12:26:50;18.00;;;14.13;;
17201;SDS011;8717;53.588;10.176;2024-03-07T12:29:19;19.50;;;14.10;;
17201;SDS011;8717;53.588;10.176;2024-03-07T12:31:55;19.67;;;14.63;;
17201;SDS011;8717;53.588;10.176;2024-03-07T12:34:23;22.47;;;14.43;;
17201;SDS011;8717;53.588;10.176;2024-03-07T12:36:51;23.43;;;15.10;;
17201;SDS011;8717;53.588;10.176;2024-03-07T12:39:21;21.67;;;14.90;;
17201;SDS011;8717;53.588;10.176;2024-03-07T12:41:51;21.50;;;15.37;;
17201;SDS011;8717;53.588;10.176;2024-03-07T12:44:20;21.47;;;15.43;;
17201;SDS011;8717;53.588;10.176;2024-03-07T12:46:50;20.17;;;14.93;;
17201;SDS011;8717;53.588;10.176;2024-03-07T12:49:21;19.60;;;14.27;;
17201;SDS011;8717;53.588;10.176;2024-03-07T12:51:52;23.00;;;14.67;;
17201;SDS011;8717;53.588;10.176;2024-03-07T12:54:19;23.67;;;14.93;;
17201;SDS011;8717;53.588;10.176;2024-03-07T12:56:46;23.60;;;16.03;;
17201;SDS011;8717;53.588;10.176;2024-03-07T12:59:15;19.70;;;14.87;;
17201;SDS011;8717;53.588;10.176;2024-03-07T13:01:43;22.73;;;16.17;;
17201;SDS011;8717;53.588;10.176;2024-03-07T13:04:12;24.77;;;15.83;;
17201;SDS011;8717;53.588;10.176;2024-03-07T13:06:39;22.03;;;15.10;;
17201;SDS011;8717;53.588;10.176;2024-03-07T13:09:08;20.80;;;15.17;;
17201;SDS011;8717;53.588;10.176;2024-03-07T13:11:39;20.20;;;15.00;;
17201;SDS011;8717;53.588;10.176;2024-03-07T13:14:07;21.00;;;15.00;;
17201;SDS011;8717;53.588;10.176;2024-03-07T13:16:35;22.67;;;15.80;;
17201;SDS011;8717;53.588;10.176;2024-03-07T13:19:03;19.67;;;15.33;;
17201;SDS011;8717;53.588;10.176;2024-03-07T13:21:30;21.40;;;15.27;;
17201;SDS011;8717;53.588;10.176;2024-03-07T13:23:57;21.67;;;15.17;;
17201;SDS011;8717;53.588;10.176;2024-03-07T13:26:25;19.70;;;14.40;;
17201;SDS011;8717;53.588;10.176;2024-03-07T13:28:55;19.27;;;15.10;;
17201;SDS011;8717;53.588;10.176;2024-03-07T13:31:25;20.10;;;13.97;;
17201;SDS011;8717;53.588;10.176;2024-03-07T13:33:52;20.67;;;15.23;;
17201;SDS011;8717;53.588;10.176;2024-03-07T13:36:21;22.37;;;14.87;;
17201;SDS011;8717;53.588;10.176;2024-03-07T13:38:50;20.53;;;15.10;;
17201;SDS011;8717;53.588;10.176;2024-03-07T13:41:18;19.67;;;15.03;;
17201;SDS011;8717;53.588;10.176;2024-03-07T13:43:45;22.97;;;15.73;;
17201;SDS011;8717;53.588;10.176;2024-03-07T13:46:12;22.43;;;16.07;;
17201;SDS011;8717;53.588;10.176;2024-03-07T13:48:40;25.13;;;16.53;;
17201;SDS011;8717;53.588;10.176;2024-03-07T13:51:07;24.27;;;16.80;;
17201;SDS011;8717;53.588;10.176;2024-03-07T13:53:36;22.27;;;16.10;;
17201;SDS011;8717;53.588;10.176;2024-03-07T13:56:19;21.37;;;15.37;;
17201;SDS011;8717;53.588;10.176;2024-03-07T13:59:08;21.17;;;14.93;;
17201;SDS011;8717;53.588;10.176;2024-03-07T14:01:52;21.43;;;15.00;;
17201;SDS011;8717;53.588;10.176;2024-03-07T14:04:56;20.63;;;15.87;;
17201;SDS011;8717;53.588;10.176;2024-03-07T14:08:12;20.17;;;14.87;;
17201;SDS011;8717;53.588;10.176;2024-03-07T14:11:06;20.60;;;14.40;;
17201;SDS011;8717;53.588;10.176;2024-03-07T14:14:06;19.53;;;14.57;;
17201;SDS011;8717;53.588;10.176;2024-03-07T14:17:03;22.93;;;14.63;;
17201;SDS011;8717;53.588;10.176;2024-03-07T14:20:06;18.80;;;13.97;;
17201;SDS011;8717;53.588;10.176;2024-03-07T14:23:01;22.53;;;14.20;;
17201;SDS011;8717;53.588;10.176;2024-03-07T14:25:43;22.73;;;14.10;;
17201;SDS011;8717;53.588;10.176;2024-03-07T14:31:15;20.13;;;14.10;;
17201;SDS011;8717;53.588;10.176;2024-03-07T14:33:48;22.27;;;14.73;;
17201;SDS011;8717;53.588;10.176;2024-03-07T14:36:32;19.83;;;13.90;;